Time;durP1;ratioP1;P1;durP2;ratioP2;P2;SDS_P1;SDS_P2;PMS_P1;PMS_P2;Temp;Humidity;BMP_temperature;BMP_pressure;BME280_temperature;BME280_humidity;BME280_pressure;Samples;Min_cycle;Max_cycle;Signal;HPM_P1;HPM_P2
2022/06/08 00:00:16;;;;;;;24.47;15.10;;;;;;;;;;4926692;29;20200;-82
2022/06/08 00:02:47;;;;;;;21.43;15.43;;;;;;;;;;4906859;29;20222;-82
2022/06/08 00:05:16;;;;;;;22.37;16.90;;;;;;;;;;4902389;29;20246;-82
2022/06/08 00:07:44;;;;;;;15.30;12.20;;;;;;;;;;4947268;29;20218;-82
2022/06/08 00:10:13;;;;;;;21.23;15.53;;;;;;;;;;4920231;29;20263;-82
2022/06/08 00:12:41;;;;;;;15.87;11.90;;;;;;;;;;4914766;29;20262;-82
2022/06/08 00:15:10;;;;;;;17.07;12.17;;;;;;;;;;4915165;29;20214;-81
2022/06/08 00:17:39;;;;;;;22.60;12.60;;;;;;;;;;4883574;29;20206;-82
2022/06/08 00:20:10;;;;;;;15.57;11.67;;;;;;;;;;4918762;29;20202;-81
2022/06/08 00:22:39;;;;;;;19.20;12.17;;;;;;;;;;4908241;29;20208;-82
2022/06/08 00:25:08;;;;;;;16.17;11.20;;;;;;;;;;4899750;29;20194;-82
2022/06/08 00:27:36;;;;;;;18.73;11.50;;;;;;;;;;4909218;29;20206;-82
2022/06/08 00:30:06;;;;;;;15.07;9.33;;;;;;;;;;4888406;29;20234;-82
2022/06/08 00:32:34;;;;;;;14.63;10.07;;;;;;;;;;4909364;29;20218;-82
2022/06/08 00:35:03;;;;;;;10.37;8.33;;;;;;;;;;4914432;29;20248;-82
2022/06/08 00:37:33;;;;;;;10.57;7.90;;;;;;;;;;4899593;29;20203;-82
2022/06/08 00:40:01;;;;;;;15.47;8.13;;;;;;;;;;4912888;29;20214;-83
2022/06/08 00:42:30;;;;;;;12.37;7.40;;;;;;;;;;4882983;29;20206;-82
2022/06/08 00:45:00;;;;;;;12.00;7.17;;;;;;;;;;4882840;29;20230;-82
2022/06/08 00:47:29;;;;;;;10.47;6.60;;;;;;;;;;4888201;29;20210;-82
2022/06/08 00:50:01;;;;;;;9.30;7.37;;;;;;;;;;4907094;29;20218;-82
2022/06/08 00:52:30;;;;;;;8.70;5.97;;;;;;;;;;4903875;29;20217;-82
2022/06/08 00:55:01;;;;;;;12.27;7.10;;;;;;;;;;4908097;29;20217;-82
2022/06/08 00:57:31;;;;;;;8.27;6.57;;;;;;;;;;4911533;29;20210;-81
2022/06/08 01:00:02;;;;;;;6.67;4.60;;;;;;;;;;4923279;29;20237;-80
2022/06/08 01:02:31;;;;;;;13.17;8.33;;;;;;;;;;4888715;29;20298;-80
2022/06/08 01:05:19;;;;;;;7.60;5.80;;;;;;;;;;4899214;29;20206;-80
2022/06/08 01:07:48;;;;;;;6.63;4.53;;;;;;;;;;4901878;29;20240;-80
2022/06/08 01:10:19;;;;;;;10.97;6.27;;;;;;;;;;4914149;29;20240;-80
2022/06/08 01:12:48;;;;;;;8.70;5.07;;;;;;;;;;4919656;29;20215;-81
2022/06/08 01:15:19;;;;;;;8.47;6.50;;;;;;;;;;4879727;29;20230;-80
2022/06/08 01:17:48;;;;;;;8.93;6.47;;;;;;;;;;4911057;29;20289;-80
2022/06/08 01:20:16;;;;;;;14.00;7.60;;;;;;;;;;4894113;29;20210;-80
2022/06/08 01:22:46;;;;;;;11.97;8.57;;;;;;;;;;4917022;29;20206;-79
2022/06/08 01:25:15;;;;;;;13.10;8.80;;;;;;;;;;4916858;29;20233;-80
2022/06/08 01:27:53;;;;;;;12.37;6.23;;;;;;;;;;4914155;29;20202;-79
2022/06/08 01:30:23;;;;;;;7.90;3.83;;;;;;;;;;4882344;29;20227;-80
2022/06/08 01:33:09;;;;;;;9.27;7.00;;;;;;;;;;4898613;29;20206;-79
2022/06/08 01:35:43;;;;;;;6.87;4.37;;;;;;;;;;4913379;29;20270;-80
2022/06/08 01:38:17;;;;;;;11.00;7.10;;;;;;;;;;4932149;29;20206;-80
2022/06/08 01:40:54;;;;;;;11.00;6.47;;;;;;;;;;4920007;29;20225;-80
2022/06/08 01:43:30;;;;;;;12.70;9.10;;;;;;;;;;4930420;29;20229;-81
2022/06/08 01:46:05;;;;;;;5.27;3.63;;;;;;;;;;4885182;29;20219;-80
2022/06/08 01:48:51;;;;;;;16.80;10.53;;;;;;;;;;4878597;29;20204;-82
2022/06/08 01:51:24;;;;;;;11.60;7.47;;;;;;;;;;4894355;29;20245;-81
2022/06/08 01:53:57;;;;;;;10.47;6.63;;;;;;;;;;4882072;29;20206;-81
2022/06/08 01:56:29;;;;;;;9.73;6.47;;;;;;;;;;4926371;29;20269;-81
2022/06/08 01:59:03;;;;;;;8.03;5.73;;;;;;;;;;4898305;29;20208;-81
2022/06/08 02:01:38;;;;;;;7.20;5.80;;;;;;;;;;4881307;29;20195;-81
2022/06/08 02:04:14;;;;;;;10.97;7.20;;;;;;;;;;4907862;29;20297;-81
2022/06/08 02:06:44;;;;;;;9.83;6.47;;;;;;;;;;4898159;29;20210;-81
2022/06/08 02:09:18;;;;;;;14.20;8.03;;;;;;;;;;4906661;29;20210;-81
2022/06/08 02:11:50;;;;;;;9.63;6.20;;;;;;;;;;4899064;29;20212;-81
2022/06/08 02:14:21;;;;;;;7.17;5.63;;;;;;;;;;4889724;29;20218;-81
2022/06/08 02:16:51;;;;;;;9.30;6.87;;;;;;;;;;4929580;29;20201;-81
2022/06/08 02:19:21;;;;;;;10.63;7.17;;;;;;;;;;4898422;29;20217;-81
2022/06/08 02:21:51;;;;;;;16.70;9.97;;;;;;;;;;4894703;29;20202;-81
2022/06/08 02:24:24;;;;;;;12.83;7.90;;;;;;;;;;4898414;29;20214;-81
2022/06/08 02:26:54;;;;;;;9.87;6.27;;;;;;;;;;4878648;29;20225;-81
2022/06/08 02:29:24;;;;;;;9.73;7.13;;;;;;;;;;4931488;29;20217;-81
2022/06/08 02:31:55;;;;;;;12.00;7.70;;;;;;;;;;4904465;29;20226;-80
2022/06/08 02:34:28;;;;;;;19.40;12.07;;;;;;;;;;4930727;29;20198;-81
2022/06/08 02:37:00;;;;;;;15.33;11.60;;;;;;;;;;4900231;29;20204;-81
2022/06/08 02:39:31;;;;;;;20.53;13.87;;;;;;;;;;4916946;29;20233;-80
2022/06/08 02:42:06;;;;;;;14.93;8.47;;;;;;;;;;4899946;29;20205;-81
2022/06/08 02:44:35;;;;;;;16.97;10.93;;;;;;;;;;4916666;29;20240;-81
2022/06/08 02:47:05;;;;;;;17.07;12.13;;;;;;;;;;4900055;29;20220;-81
2022/06/08 02:49:34;;;;;;;22.23;13.97;;;;;;;;;;4900169;29;20208;-80
2022/06/08 02:52:04;;;;;;;18.13;11.77;;;;;;;;;;4906857;29;20222;-80
2022/06/08 02:54:34;;;;;;;19.70;11.60;;;;;;;;;;4881080;29;20251;-81
2022/06/08 02:57:11;;;;;;;21.40;14.53;;;;;;;;;;4885154;29;20225;-81
2022/06/08 02:59:45;;;;;;;23.73;15.10;;;;;;;;;;4919034;29;20225;-81
2022/06/08 03:02:16;;;;;;;24.77;15.60;;;;;;;;;;4925657;29;20244;-80
2022/06/08 03:04:47;;;;;;;25.27;15.30;;;;;;;;;;4901263;29;20225;-81
2022/06/08 03:07:17;;;;;;;25.83;15.00;;;;;;;;;;4916368;29;20212;-81
2022/06/08 03:09:48;;;;;;;28.87;14.37;;;;;;;;;;4916111;29;20303;-81
2022/06/08 03:12:18;;;;;;;31.27;17.47;;;;;;;;;;4900280;29;20209;-81
2022/06/08 03:14:48;;;;;;;26.07;16.23;;;;;;;;;;4914933;29;20208;-81
2022/06/08 03:17:25;;;;;;;29.67;16.40;;;;;;;;;;4885559;29;20204;-81
2022/06/08 03:19:54;;;;;;;26.77;18.10;;;;;;;;;;4901176;29;20205;-81
2022/06/08 03:22:23;;;;;;;30.20;16.20;;;;;;;;;;4894463;29;20279;-81
2022/06/08 03:24:53;;;;;;;33.10;21.93;;;;;;;;;;4885904;29;20205;-81
2022/06/08 03:27:21;;;;;;;35.37;19.40;;;;;;;;;;4903673;29;20213;-81
2022/06/08 03:29:49;;;;;;;40.63;19.93;;;;;;;;;;4900879;29;20226;-81
2022/06/08 03:32:24;;;;;;;30.87;18.53;;;;;;;;;;4899914;29;20249;-81
2022/06/08 03:34:52;;;;;;;28.00;20.10;;;;;;;;;;4909484;29;20209;-81
2022/06/08 03:37:21;;;;;;;27.30;18.03;;;;;;;;;;4905122;29;20230;-81
2022/06/08 03:39:49;;;;;;;38.40;22.73;;;;;;;;;;4900797;29;20210;-81
2022/06/08 03:42:19;;;;;;;28.00;17.03;;;;;;;;;;4900639;29;20230;-82
2022/06/08 03:44:47;;;;;;;27.17;15.90;;;;;;;;;;4913314;29;20237;-81
2022/06/08 03:47:18;;;;;;;35.50;18.33;;;;;;;;;;4915849;29;20245;-81
2022/06/08 03:49:46;;;;;;;27.97;17.13;;;;;;;;;;4900407;29;20222;-81
2022/06/08 03:52:17;;;;;;;36.90;21.50;;;;;;;;;;4911828;29;20217;-81
2022/06/08 03:54:48;;;;;;;43.10;26.00;;;;;;;;;;4901516;29;20226;-81
2022/06/08 03:57:16;;;;;;;39.17;25.53;;;;;;;;;;4925972;29;20205;-81
2022/06/08 03:59:47;;;;;;;35.00;22.17;;;;;;;;;;4889358;29;20235;-81
2022/06/08 04:02:16;;;;;;;36.53;26.27;;;;;;;;;;4919202;29;20233;-81
2022/06/08 04:04:45;;;;;;;39.97;25.23;;;;;;;;;;4902231;29;20219;-82
2022/06/08 04:07:13;;;;;;;39.20;27.00;;;;;;;;;;4923150;29;20206;-81
2022/06/08 04:09:42;;;;;;;26.53;16.17;;;;;;;;;;4904367;29;20250;-81
2022/06/08 04:12:11;;;;;;;24.03;16.53;;;;;;;;;;4915027;29;20222;-81
2022/06/08 04:14:39;;;;;;;24.50;17.53;;;;;;;;;;4899648;29;20265;-81
2022/06/08 04:17:09;;;;;;;23.80;15.67;;;;;;;;;;4898812;29;20203;-81
2022/06/08 04:19:38;;;;;;;22.87;16.13;;;;;;;;;;4923622;29;20217;-81
2022/06/08 04:22:06;;;;;;;23.17;16.83;;;;;;;;;;4918968;29;20201;-81
2022/06/08 04:24:35;;;;;;;28.43;22.60;;;;;;;;;;4919096;29;20206;-81
2022/06/08 04:27:04;;;;;;;20.70;14.73;;;;;;;;;;4917995;29;20295;-81
2022/06/08 04:29:32;;;;;;;22.30;16.57;;;;;;;;;;4906315;29;20206;-81
2022/06/08 04:32:01;;;;;;;23.53;17.23;;;;;;;;;;4889001;29;20215;-81
2022/06/08 04:34:31;;;;;;;14.83;11.10;;;;;;;;;;4888716;29;20195;-79
2022/06/08 04:36:59;;;;;;;25.73;17.53;;;;;;;;;;4887451;29;20216;-81
2022/06/08 04:39:27;;;;;;;11.13;8.63;;;;;;;;;;4918020;29;20205;-80
2022/06/08 04:41:56;;;;;;;25.73;18.43;;;;;;;;;;4891197;29;20214;-81
2022/06/08 04:44:25;;;;;;;25.33;15.43;;;;;;;;;;4886099;29;20228;-81
2022/06/08 04:46:53;;;;;;;18.93;13.47;;;;;;;;;;4892573;29;20223;-81
2022/06/08 04:49:22;;;;;;;20.80;14.60;;;;;;;;;;4885199;29;20210;-81
2022/06/08 04:51:52;;;;;;;17.87;15.73;;;;;;;;;;4933026;29;20227;-81
2022/06/08 04:54:20;;;;;;;12.10;9.43;;;;;;;;;;4918497;29;20210;-81
2022/06/08 04:56:49;;;;;;;17.33;14.50;;;;;;;;;;4925758;29;20218;-81
2022/06/08 04:59:17;;;;;;;15.13;12.90;;;;;;;;;;4899078;29;20290;-81
2022/06/08 05:01:45;;;;;;;16.40;12.57;;;;;;;;;;4870132;29;20269;-81
2022/06/08 05:04:14;;;;;;;21.37;10.00;;;;;;;;;;4899394;29;20206;-81
2022/06/08 05:06:43;;;;;;;12.53;10.13;;;;;;;;;;4898535;29;20391;-81
2022/06/08 05:09:13;;;;;;;12.33;9.43;;;;;;;;;;4924591;29;20242;-81
2022/06/08 05:11:41;;;;;;;13.80;12.40;;;;;;;;;;4884472;29;20227;-81
2022/06/08 05:14:09;;;;;;;12.23;9.20;;;;;;;;;;4892588;29;20215;-81
2022/06/08 05:16:38;;;;;;;11.63;10.10;;;;;;;;;;4900673;29;20220;-81
2022/06/08 05:19:06;;;;;;;12.53;9.23;;;;;;;;;;4915921;29;20194;-81
2022/06/08 05:21:35;;;;;;;9.47;7.47;;;;;;;;;;4905931;29;20210;-81
2022/06/08 05:24:06;;;;;;;11.73;7.23;;;;;;;;;;4897747;29;20230;-81
2022/06/08 05:26:39;;;;;;;11.10;8.40;;;;;;;;;;4882625;29;20218;-81
2022/06/08 05:29:07;;;;;;;8.67;7.77;;;;;;;;;;4911396;29;20210;-81
2022/06/08 05:31:38;;;;;;;9.70;7.80;;;;;;;;;;4899201;29;20246;-81
2022/06/08 05:34:06;;;;;;;9.73;5.70;;;;;;;;;;4912295;29;20225;-81
2022/06/08 05:36:35;;;;;;;8.80;6.57;;;;;;;;;;4882314;29;20203;-81
2022/06/08 05:39:05;;;;;;;6.67;5.97;;;;;;;;;;4914909;29;20235;-81
2022/06/08 05:41:34;;;;;;;8.17;4.43;;;;;;;;;;4924993;29;20212;-80
2022/06/08 05:44:06;;;;;;;3.50;3.20;;;;;;;;;;4912846;29;20223;-81
2022/06/08 05:46:35;;;;;;;5.20;3.67;;;;;;;;;;4917578;29;20218;-80
2022/06/08 05:49:06;;;;;;;7.63;4.13;;;;;;;;;;4903453;29;20207;-81
2022/06/08 05:51:34;;;;;;;3.97;3.03;;;;;;;;;;4926007;29;20206;-81
2022/06/08 05:54:03;;;;;;;3.77;2.37;;;;;;;;;;4894382;29;20271;-81
2022/06/08 05:56:31;;;;;;;3.33;3.03;;;;;;;;;;4903960;29;20262;-80
2022/06/08 05:59:00;;;;;;;4.87;3.80;;;;;;;;;;4916558;29;20212;-80
2022/06/08 06:01:30;;;;;;;5.03;3.03;;;;;;;;;;4916605;29;20203;-80
2022/06/08 06:04:00;;;;;;;7.30;3.00;;;;;;;;;;4906371;29;20208;-79
2022/06/08 06:06:29;;;;;;;4.07;3.17;;;;;;;;;;4895212;29;20203;-79
2022/06/08 06:08:58;;;;;;;3.60;2.77;;;;;;;;;;4882452;29;20220;-81
2022/06/08 06:11:26;;;;;;;2.90;2.13;;;;;;;;;;4933336;28;20329;-81
2022/06/08 06:13:55;;;;;;;2.30;2.13;;;;;;;;;;4916321;29;20223;-80
2022/06/08 06:16:24;;;;;;;2.97;2.30;;;;;;;;;;4916508;29;20207;-79
2022/06/08 06:18:55;;;;;;;9.47;4.53;;;;;;;;;;4897175;29;20208;-79
2022/06/08 06:21:25;;;;;;;5.07;3.70;;;;;;;;;;4891300;29;20238;-80
2022/06/08 06:23:57;;;;;;;4.87;3.30;;;;;;;;;;4884483;29;20204;-80
2022/06/08 06:26:25;;;;;;;2.37;1.80;;;;;;;;;;4897132;29;20206;-80
2022/06/08 06:28:54;;;;;;;3.27;2.97;;;;;;;;;;4881887;29;20209;-80
2022/06/08 06:31:24;;;;;;;1.27;0.93;;;;;;;;;;4909330;29;20216;-80
2022/06/08 06:33:55;;;;;;;6.57;2.30;;;;;;;;;;4906248;29;20232;-80
2022/06/08 06:36:24;;;;;;;4.37;3.97;;;;;;;;;;4902303;29;20223;-80
2022/06/08 06:38:53;;;;;;;5.43;3.67;;;;;;;;;;4900750;29;20217;-81
2022/06/08 06:41:22;;;;;;;7.77;4.90;;;;;;;;;;4919686;29;20215;-80
2022/06/08 06:43:52;;;;;;;3.80;3.00;;;;;;;;;;4908999;29;20225;-80
2022/06/08 06:46:20;;;;;;;7.33;3.73;;;;;;;;;;4902518;29;20208;-80
2022/06/08 06:48:49;;;;;;;5.47;3.77;;;;;;;;;;4908642;29;20205;-80
2022/06/08 06:51:18;;;;;;;7.73;4.70;;;;;;;;;;4916941;29;20260;-80
2022/06/08 06:53:48;;;;;;;7.97;5.60;;;;;;;;;;4912169;29;20214;-80
2022/06/08 06:56:17;;;;;;;4.37;3.27;;;;;;;;;;4932860;29;20275;-80
2022/06/08 06:58:48;;;;;;;4.97;2.50;;;;;;;;;;4901098;29;20204;-81
2022/06/08 07:01:18;;;;;;;3.03;1.97;;;;;;;;;;4903210;29;20210;-80
2022/06/08 07:03:47;;;;;;;9.17;2.73;;;;;;;;;;4920351;29;20195;-80
2022/06/08 07:06:15;;;;;;;3.63;2.97;;;;;;;;;;4904559;29;20200;-80
2022/06/08 07:08:44;;;;;;;4.53;3.03;;;;;;;;;;4916629;29;20200;-80
2022/06/08 07:14:02;;;;;;;3.47;2.60;;;;;;;;;;4919171;29;20257;-81
2022/06/08 07:16:34;;;;;;;4.03;3.00;;;;;;;;;;4901160;29;20209;-82
2022/06/08 07:19:05;;;;;;;4.70;2.93;;;;;;;;;;4884135;29;20219;-83
2022/06/08 07:21:34;;;;;;;5.63;3.93;;;;;;;;;;4907246;29;20224;-81
2022/06/08 07:24:03;;;;;;;6.13;4.47;;;;;;;;;;4874833;29;20208;-80
2022/06/08 07:26:35;;;;;;;5.13;2.90;;;;;;;;;;4901783;29;20212;-82
2022/06/08 07:29:06;;;;;;;4.67;3.37;;;;;;;;;;4892840;29;20248;-80
2022/06/08 07:31:35;;;;;;;2.13;1.57;;;;;;;;;;4876795;29;20241;-81
2022/06/08 07:34:03;;;;;;;5.30;3.37;;;;;;;;;;4906953;29;20228;-84
2022/06/08 07:36:32;;;;;;;6.90;5.53;;;;;;;;;;4891010;29;21718;-85
2022/06/08 07:39:00;;;;;;;6.90;5.93;;;;;;;;;;4910368;29;20215;-82
2022/06/08 07:41:29;;;;;;;1.00;1.00;;;;;;;;;;4903327;29;20325;-82
2022/06/08 07:43:59;;;;;;;6.33;4.50;;;;;;;;;;4895547;29;20297;-83
2022/06/08 07:46:29;;;;;;;5.37;3.63;;;;;;;;;;4891583;29;20216;-82
2022/06/08 07:51:44;;;;;;;1.77;1.57;;;;;;;;;;4903352;29;20209;-82
2022/06/08 07:54:13;;;;;;;6.10;4.53;;;;;;;;;;4877358;29;20233;-82
2022/06/08 07:56:41;;;;;;;7.23;3.30;;;;;;;;;;4876244;29;20304;-83
2022/06/08 07:59:11;;;;;;;4.23;3.60;;;;;;;;;;4879425;29;20206;-82
2022/06/08 08:01:40;;;;;;;4.50;3.80;;;;;;;;;;4905448;29;20214;-82
2022/06/08 08:04:09;;;;;;;3.53;1.97;;;;;;;;;;4879318;29;20213;-82
2022/06/08 08:06:39;;;;;;;6.63;5.40;;;;;;;;;;4873976;29;20213;-81
2022/06/08 08:09:13;;;;;;;5.67;4.00;;;;;;;;;;4891986;29;20296;-83
2022/06/08 08:11:42;;;;;;;3.77;3.07;;;;;;;;;;4893488;29;20246;-84
2022/06/08 08:14:12;;;;;;;2.60;2.33;;;;;;;;;;4893758;29;20245;-83
2022/06/08 08:16:41;;;;;;;1.73;1.63;;;;;;;;;;4880800;29;20215;-82
2022/06/08 08:19:10;;;;;;;7.60;5.37;;;;;;;;;;4903690;29;20215;-83
2022/06/08 08:21:38;;;;;;;2.30;2.10;;;;;;;;;;4877662;29;20265;-83
2022/06/08 08:24:07;;;;;;;2.37;2.17;;;;;;;;;;4907832;29;20220;-82
2022/06/08 08:26:36;;;;;;;2.67;2.30;;;;;;;;;;4891275;29;20201;-83
2022/06/08 08:29:05;;;;;;;4.50;1.90;;;;;;;;;;4878992;29;20219;-82
2022/06/08 08:31:37;;;;;;;2.77;2.43;;;;;;;;;;4895818;29;20207;-82
2022/06/08 08:34:05;;;;;;;5.53;4.20;;;;;;;;;;4912300;29;20218;-82
2022/06/08 08:36:34;;;;;;;7.43;3.77;;;;;;;;;;4895688;29;20294;-83
2022/06/08 08:39:03;;;;;;;7.80;4.67;;;;;;;;;;4883948;29;20253;-82
2022/06/08 08:44:29;;;;;;;6.47;4.33;;;;;;;;;;4880020;29;20256;-86
2022/06/08 08:47:01;;;;;;;5.03;3.87;;;;;;;;;;4909521;29;20214;-85
2022/06/08 08:49:33;;;;;;;5.73;3.33;;;;;;;;;;4908152;29;20214;-85
2022/06/08 08:52:11;;;;;;;4.80;3.50;;;;;;;;;;4893113;29;20304;-85
2022/06/08 08:54:40;;;;;;;5.23;1.63;;;;;;;;;;4908315;29;20225;-84
2022/06/08 08:57:17;;;;;;;7.60;5.30;;;;;;;;;;4892171;29;20203;-84
2022/06/08 08:59:48;;;;;;;4.97;4.47;;;;;;;;;;4880312;29;20306;-85
2022/06/08 09:03:14;;;;;;;5.77;4.27;;;;;;;;;;4909646;29;20211;-85
2022/06/08 09:05:22;;;;;;;6.93;5.20;;;;;;;;;;4907094;29;20243;-85
2022/06/08 09:07:51;;;;;;;4.17;3.50;;;;;;;;;;4909433;29;20284;-84
2022/06/08 09:10:20;;;;;;;4.53;3.50;;;;;;;;;;4909534;29;20260;-86
2022/06/08 09:12:49;;;;;;;6.23;4.63;;;;;;;;;;4878619;29;20210;-86
2022/06/08 09:15:19;;;;;;;5.40;4.40;;;;;;;;;;4892540;29;20219;-86
2022/06/08 09:17:57;;;;;;;5.73;5.13;;;;;;;;;;4907046;29;20222;-83
2022/06/08 09:20:29;;;;;;;7.00;6.27;;;;;;;;;;4907796;29;20215;-85
2022/06/08 09:22:59;;;;;;;6.23;5.63;;;;;;;;;;4907114;29;20206;-85
2022/06/08 09:25:29;;;;;;;7.97;5.60;;;;;;;;;;4909321;29;20227;-86
2022/06/08 09:27:58;;;;;;;7.87;7.17;;;;;;;;;;4878919;29;20197;-85
2022/06/08 09:30:27;;;;;;;9.30;7.63;;;;;;;;;;4906057;29;20433;-84
2022/06/08 09:33:17;;;;;;;9.30;8.57;;;;;;;;;;4877043;29;20240;-84
2022/06/08 09:35:53;;;;;;;11.80;10.63;;;;;;;;;;4877914;29;20242;-84
2022/06/08 09:38:24;;;;;;;11.30;10.10;;;;;;;;;;4903167;29;20203;-85
2022/06/08 09:41:00;;;;;;;13.80;12.23;;;;;;;;;;4907854;29;20217;-85
2022/06/08 09:43:39;;;;;;;13.97;12.67;;;;;;;;;;4902035;29;20226;-84
2022/06/08 09:46:10;;;;;;;7.93;7.07;;;;;;;;;;4877660;29;20208;-84
2022/06/08 09:51:52;;;;;;;1.47;1.37;;;;;;;;;;4906371;29;20232;-84
2022/06/08 09:54:30;;;;;;;11.47;10.30;;;;;;;;;;4904700;29;20216;-86
2022/06/08 09:57:13;;;;;;;10.57;7.53;;;;;;;;;;4888165;29;20290;-85
2022/06/08 09:59:52;;;;;;;8.57;6.90;;;;;;;;;;4904108;29;20212;-84
2022/06/08 10:02:30;;;;;;;9.77;6.77;;;;;;;;;;4875727;29;20275;-84
2022/06/08 10:05:08;;;;;;;6.97;5.27;;;;;;;;;;4904790;29;20216;-85
2022/06/08 10:07:41;;;;;;;10.43;7.33;;;;;;;;;;4877316;29;20267;-86
2022/06/08 10:10:21;;;;;;;9.97;6.10;;;;;;;;;;4893031;29;20239;-86
2022/06/08 10:12:57;;;;;;;10.87;9.77;;;;;;;;;;4877151;29;20208;-84
2022/06/08 10:15:34;;;;;;;11.13;9.93;;;;;;;;;;4907450;29;20223;-84
2022/06/08 10:18:17;;;;;;;7.17;6.43;;;;;;;;;;4884939;29;20201;-86
2022/06/08 10:20:50;;;;;;;1.93;1.83;;;;;;;;;;4910535;29;20221;-84
2022/06/08 10:23:27;;;;;;;4.57;4.13;;;;;;;;;;4875597;29;20198;-86
2022/06/08 10:25:57;;;;;;;1.63;1.53;;;;;;;;;;4907597;29;20211;-85
2022/06/08 10:28:29;;;;;;;2.10;2.00;;;;;;;;;;4908108;29;20207;-84
2022/06/08 10:31:00;;;;;;;1.13;1.13;;;;;;;;;;4907487;29;20309;-85
2022/06/08 10:33:32;;;;;;;0.43;0.43;;;;;;;;;;4906163;29;20292;-87
2022/06/08 10:36:05;;;;;;;13.00;11.10;;;;;;;;;;4881133;29;20247;-87
2022/06/08 10:38:36;;;;;;;14.83;12.57;;;;;;;;;;4906897;29;20206;-87
2022/06/08 10:44:06;;;;;;;14.40;13.03;;;;;;;;;;4875004;29;20239;-86
2022/06/08 10:46:42;;;;;;;14.40;12.93;;;;;;;;;;4876749;29;20206;-87
2022/06/08 10:49:19;;;;;;;9.23;8.23;;;;;;;;;;4909935;29;20209;-85
2022/06/08 10:52:09;;;;;;;4.47;2.83;;;;;;;;;;4884506;29;20214;-84
2022/06/08 10:54:53;;;;;;;10.30;9.33;;;;;;;;;;4916463;29;20223;-85
2022/06/08 10:57:43;;;;;;;9.37;8.43;;;;;;;;;;4907994;29;20211;-85
2022/06/08 11:00:27;;;;;;;7.00;5.60;;;;;;;;;;4877432;29;20205;-86
2022/06/08 11:03:01;;;;;;;5.50;5.00;;;;;;;;;;4875392;29;20216;-84
2022/06/08 11:05:32;;;;;;;7.87;7.07;;;;;;;;;;4905275;29;20268;-86
2022/06/08 11:08:17;;;;;;;9.30;6.93;;;;;;;;;;4907691;29;20235;-84
2022/06/08 11:10:57;;;;;;;11.57;6.27;;;;;;;;;;4907394;29;20244;-84
2022/06/08 11:13:33;;;;;;;7.67;6.70;;;;;;;;;;4910274;29;20208;-86
2022/06/08 11:16:11;;;;;;;8.20;7.23;;;;;;;;;;4911513;29;20283;-86
2022/06/08 11:18:46;;;;;;;6.23;5.70;;;;;;;;;;4883118;29;20200;-85
2022/06/08 11:21:36;;;;;;;1.40;1.30;;;;;;;;;;4909686;29;20342;-84
2022/06/08 11:24:15;;;;;;;4.40;4.00;;;;;;;;;;4882084;29;20205;-88
2022/06/08 11:26:49;;;;;;;5.63;4.77;;;;;;;;;;4894345;29;20222;-85
2022/06/08 11:29:37;;;;;;;7.13;4.87;;;;;;;;;;4881600;29;20226;-82
2022/06/08 11:32:14;;;;;;;5.90;5.07;;;;;;;;;;4887435;29;20217;-86
2022/06/08 11:34:59;;;;;;;7.50;5.40;;;;;;;;;;4874175;29;20227;-85
2022/06/08 11:37:34;;;;;;;5.17;2.90;;;;;;;;;;4877323;29;20213;-87
2022/06/08 11:40:13;;;;;;;7.30;5.40;;;;;;;;;;4882665;29;20210;-85
2022/06/08 11:42:52;;;;;;;8.53;4.83;;;;;;;;;;4880033;29;20345;-89
2022/06/08 11:45:37;;;;;;;5.63;3.97;;;;;;;;;;4891729;29;20200;-86
2022/06/08 11:48:13;;;;;;;4.20;2.83;;;;;;;;;;4904638;29;20215;-86
2022/06/08 11:54:05;;;;;;;4.37;3.10;;;;;;;;;;4902292;29;20226;-88
2022/06/08 11:56:56;;;;;;;4.20;2.87;;;;;;;;;;4894180;29;20228;-88
2022/06/08 11:59:28;;;;;;;5.43;3.43;;;;;;;;;;4880031;29;20236;-88
2022/06/08 12:02:03;;;;;;;4.23;2.77;;;;;;;;;;4888466;29;20238;-87
2022/06/08 12:04:34;;;;;;;4.07;3.00;;;;;;;;;;4878385;29;20287;-85
2022/06/08 12:07:07;;;;;;;4.30;2.27;;;;;;;;;;4908619;29;20199;-87
2022/06/08 12:09:36;;;;;;;5.60;2.27;;;;;;;;;;4893769;29;20218;-85
2022/06/08 12:12:15;;;;;;;3.67;2.57;;;;;;;;;;4906228;29;20204;-89
2022/06/08 12:14:52;;;;;;;2.57;2.10;;;;;;;;;;4880149;29;20211;-91
2022/06/08 12:17:26;;;;;;;4.60;2.50;;;;;;;;;;4902253;29;20208;-89
2022/06/08 12:20:02;;;;;;;4.20;2.30;;;;;;;;;;4873877;29;20219;-87
2022/06/08 12:22:43;;;;;;;2.07;1.97;;;;;;;;;;4910143;29;20297;-90
2022/06/08 12:25:27;;;;;;;3.57;2.27;;;;;;;;;;4910195;29;20192;-91
2022/06/08 12:28:18;;;;;;;4.37;1.87;;;;;;;;;;4899700;29;20243;-90
2022/06/08 12:30:57;;;;;;;2.03;1.70;;;;;;;;;;4876091;29;20298;-86
2022/06/08 12:33:36;;;;;;;2.20;1.40;;;;;;;;;;4892182;29;20268;-88
2022/06/08 12:36:10;;;;;;;4.47;2.77;;;;;;;;;;4909730;29;20224;-88
2022/06/08 12:39:01;;;;;;;4.83;2.93;;;;;;;;;;4879571;29;20298;-88
2022/06/08 12:41:48;;;;;;;4.50;2.23;;;;;;;;;;4889947;29;20262;-89
2022/06/08 12:44:38;;;;;;;;;;;;;;;;;;;;;
2022/06/08 12:47:17;;;;;;;4.47;2.70;;;;;;;;;;4880025;29;20200;-88
2022/06/08 12:49:48;;;;;;;2.60;2.40;;;;;;;;;;4907154;29;20219;-88
2022/06/08 12:52:22;;;;;;;4.53;1.57;;;;;;;;;;4908045;29;20219;-84
2022/06/08 12:54:51;;;;;;;3.20;1.13;;;;;;;;;;4908650;29;20246;-87
2022/06/08 12:57:22;;;;;;;4.83;2.83;;;;;;;;;;4907437;29;20235;-87
2022/06/08 12:59:54;;;;;;;2.03;1.73;;;;;;;;;;4892050;29;20219;-87
2022/06/08 13:02:26;;;;;;;2.23;1.80;;;;;;;;;;4875927;29;20218;-88
2022/06/08 13:04:55;;;;;;;2.57;2.20;;;;;;;;;;4890568;29;20214;-89
2022/06/08 13:07:36;;;;;;;3.33;1.93;;;;;;;;;;4892336;29;20310;-84
2022/06/08 13:10:06;;;;;;;2.03;1.77;;;;;;;;;;4909059;29;20243;-87
2022/06/08 13:12:40;;;;;;;3.80;2.63;;;;;;;;;;4906954;29;20214;-86
2022/06/08 13:15:18;;;;;;;3.60;2.50;;;;;;;;;;4880140;29;20212;-86
2022/06/08 13:17:49;;;;;;;4.13;3.33;;;;;;;;;;4907260;29;20219;-86
2022/06/08 13:20:20;;;;;;;2.70;2.47;;;;;;;;;;4879522;29;20220;-89
2022/06/08 13:22:49;;;;;;;7.50;2.43;;;;;;;;;;4880653;29;20215;-85
2022/06/08 13:25:28;;;;;;;3.93;2.77;;;;;;;;;;4910161;29;20214;-87
2022/06/08 13:28:00;;;;;;;6.27;3.27;;;;;;;;;;4876945;29;20208;-87
2022/06/08 13:30:44;;;;;;;6.03;3.67;;;;;;;;;;4896932;29;20219;-85
2022/06/08 13:35:58;;;;;;;5.00;3.67;;;;;;;;;;4907918;29;20307;-87
2022/06/08 13:38:28;;;;;;;4.43;4.03;;;;;;;;;;4896197;29;20206;-87
2022/06/08 13:41:01;;;;;;;3.83;3.33;;;;;;;;;;4911200;29;20212;-89
2022/06/08 13:43:33;;;;;;;5.50;3.97;;;;;;;;;;4880603;29;20322;-88
2022/06/08 13:46:04;;;;;;;4.23;3.73;;;;;;;;;;4893678;29;20280;-91
2022/06/08 13:48:37;;;;;;;4.30;3.37;;;;;;;;;;4879375;29;20204;-88
2022/06/08 13:51:13;;;;;;;3.70;3.40;;;;;;;;;;4909684;29;20212;-82
2022/06/08 13:53:45;;;;;;;4.77;3.60;;;;;;;;;;4891273;29;20214;-87
2022/06/08 13:56:14;;;;;;;4.20;3.80;;;;;;;;;;4882855;29;20216;-84
2022/06/08 13:58:44;;;;;;;4.90;3.87;;;;;;;;;;4877956;29;20203;-89
2022/06/08 14:01:16;;;;;;;2.33;2.23;;;;;;;;;;4878707;29;20212;-88
2022/06/08 14:03:47;;;;;;;4.10;2.47;;;;;;;;;;4878816;29;20290;-88
2022/06/08 14:15:18;;;;;;;3.90;3.57;;;;;;;;;;4895578;29;20215;-86
2022/06/08 14:17:52;;;;;;;3.77;3.40;;;;;;;;;;4894200;29;20219;-86
2022/06/08 14:20:34;;;;;;;2.57;1.77;;;;;;;;;;4911976;29;20211;-84
2022/06/08 14:23:06;;;;;;;3.37;3.07;;;;;;;;;;4878542;29;20214;-85
2022/06/08 14:25:35;;;;;;;4.60;3.87;;;;;;;;;;4878458;29;20203;-86
2022/06/08 14:28:04;;;;;;;4.97;3.10;;;;;;;;;;4892750;29;20204;-84
2022/06/08 14:30:33;;;;;;;5.50;5.00;;;;;;;;;;4905310;29;20208;-85
2022/06/08 14:33:03;;;;;;;1.70;1.47;;;;;;;;;;4875869;29;20232;-84
2022/06/08 14:35:35;;;;;;;5.50;3.00;;;;;;;;;;4908955;29;20221;-84
2022/06/08 14:38:25;;;;;;;5.37;3.83;;;;;;;;;;4910675;29;20208;-87
2022/06/08 14:40:55;;;;;;;3.70;2.40;;;;;;;;;;4907377;29;20212;-83
2022/06/08 14:43:25;;;;;;;5.43;2.07;;;;;;;;;;4908336;29;20231;-88
2022/06/08 14:45:54;;;;;;;1.67;1.47;;;;;;;;;;4871104;29;20208;-87
2022/06/08 14:48:23;;;;;;;8.70;4.17;;;;;;;;;;4906547;29;20219;-87
2022/06/08 14:50:55;;;;;;;3.40;2.87;;;;;;;;;;4903994;29;20223;-88
2022/06/08 14:53:24;;;;;;;4.60;3.47;;;;;;;;;;4891546;29;20276;-88
2022/06/08 14:58:40;;;;;;;3.43;2.87;;;;;;;;;;4909308;29;20533;-87
2022/06/08 15:01:12;;;;;;;15.70;3.30;;;;;;;;;;4876528;29;20219;-85
2022/06/08 15:03:41;;;;;;;5.00;1.33;;;;;;;;;;4905009;29;20210;-89
2022/06/08 15:06:13;;;;;;;6.37;2.97;;;;;;;;;;4909380;29;20218;-84
2022/06/08 15:08:46;;;;;;;3.07;2.13;;;;;;;;;;4908682;29;20255;-86
2022/06/08 15:14:13;;;;;;;6.83;1.93;;;;;;;;;;4926852;29;20203;-88
2022/06/08 15:16:42;;;;;;;4.00;3.60;;;;;;;;;;4906352;29;20242;-87
2022/06/08 15:19:15;;;;;;;5.17;2.60;;;;;;;;;;4910766;29;20212;-87
2022/06/08 15:21:45;;;;;;;3.97;2.50;;;;;;;;;;4925561;29;20207;-87
2022/06/08 15:24:14;;;;;;;10.33;4.03;;;;;;;;;;4910329;29;20203;-88
2022/06/08 15:26:43;;;;;;;7.90;4.13;;;;;;;;;;4926765;29;20254;-86
2022/06/08 15:29:14;;;;;;;12.23;3.93;;;;;;;;;;4926957;29;20215;-86
2022/06/08 15:31:44;;;;;;;17.27;5.90;;;;;;;;;;4924564;29;20211;-88
2022/06/08 15:34:15;;;;;;;2.57;1.87;;;;;;;;;;4925994;29;20258;-85
2022/06/08 15:36:45;;;;;;;10.00;4.03;;;;;;;;;;4902632;29;20242;-86
2022/06/08 15:39:15;;;;;;;17.20;4.20;;;;;;;;;;4904954;29;20203;-87